TimeMST,TemperatureF,Dew PointF,Humidity,Sea Level PressureIn,VisibilityMPH,Wind Direction,Wind SpeedMPH,Gust SpeedMPH,PrecipitationIn,Events,Conditions,WindDirDegrees,DateUTC
12:53 AM,-11.0,-15.0,83,30.71,5.0,Calm,Calm,-,N/A,,Clear,0,2013-01-05 07:53:00
1:53 AM,-9.9,-15.0,78,30.71,5.0,NE,3.5,-,N/A,,Haze,40,2013-01-05 08:53:00
2:53 AM,-11.9,-17.0,78,30.74,5.0,Calm,Calm,-,N/A,,Haze,0,2013-01-05 09:53:00
3:53 AM,-9.9,-15.0,78,30.74,7.0,Calm,Calm,-,N/A,,Clear,0,2013-01-05 10:53:00
4:53 AM,-11.0,-16.1,78,30.76,7.0,West,4.6,-,N/A,,Clear,260,2013-01-05 11:53:00
5:53 AM,-11.9,-17.0,78,30.80,6.0,Calm,Calm,-,N/A,,Haze,0,2013-01-05 12:53:00
6:53 AM,-11.9,-17.0,78,30.83,5.0,Calm,Calm,-,N/A,,Haze,0,2013-01-05 13:53:00
7:00 AM,-11.2,-16.6,77,30.43,4.0,Calm,Calm,-,N/A,,Haze,0,2013-01-05 14:00:00
7:53 AM,-11.9,-16.1,82,30.85,4.0,Calm,Calm,-,N/A,,Clear,0,2013-01-05 14:53:00
8:53 AM,-9.0,-14.1,79,30.87,3.0,Calm,Calm,-,N/A,,Haze,0,2013-01-05 15:53:00
9:53 AM,-6.0,-7.1,95,30.87,4.0,Calm,Calm,-,N/A,,Clear,0,2013-01-05 16:53:00
10:53 AM,-2.9,-7.1,82,30.86,5.0,Calm,Calm,-,N/A,,Clear,0,2013-01-05 17:53:00
11:53 AM,-2.9,-9.0,75,30.83,7.0,East,5.8,-,N/A,,Clear,90,2013-01-05 18:53:00
12:53 PM,-0.0,-7.1,72,30.81,7.0,SE,3.5,-,N/A,,Clear,130,2013-01-05 19:53:00
1:53 PM,-0.0,-7.1,72,30.79,8.0,East,5.8,-,N/A,,Clear,90,2013-01-05 20:53:00
2:53 PM,1.0,-7.1,69,30.80,7.0,Calm,Calm,-,N/A,,Clear,0,2013-01-05 21:53:00
3:53 PM,-0.0,-7.1,72,30.80,7.0,East,4.6,-,N/A,,Clear,90,2013-01-05 22:53:00
4:53 PM,-2.0,-9.0,72,30.82,7.0,East,4.6,-,N/A,,Clear,80,2013-01-05 23:53:00
5:53 PM,-2.9,-9.0,75,30.84,7.0,Calm,Calm,-,N/A,,Clear,0,2013-01-06 00:53:00
6:53 PM,-5.1,-11.0,76,30.86,7.0,Calm,Calm,-,N/A,,Clear,0,2013-01-06 01:53:00
7:53 PM,-5.1,-9.9,80,30.87,6.0,Calm,Calm,-,N/A,,Haze,0,2013-01-06 02:53:00
8:53 PM,-7.1,-11.9,79,30.85,4.0,West,3.5,-,N/A,,Haze,260,2013-01-06 03:53:00
9:53 PM,-8.0,-11.9,83,30.84,5.0,WNW,3.5,-,N/A,,Clear,290,2013-01-06 04:53:00
10:53 PM,-8.0,-13.0,79,30.83,5.0,Calm,Calm,-,N/A,,Haze,0,2013-01-06 05:53:00
11:53 PM,-8.0,-11.9,83,30.82,5.0,Calm,Calm,-,N/A,,Clear,0,2013-01-06 06:53:00